This is the latest recevied weather packets stored in our database for station/object KD4WXI. If no packets are shown the sender has not sent any weather packets the latest 1 day(s).
| Time | Temp. | Humidity | Pressure | Rain* | Wind** | Luminosity | Snow |
|---|---|---|---|---|---|---|---|
| 1778012582 | 26.11° C | 39% | 1014.3 hPa | 0 mm | 0.45 m/s, 135° | 108 W/m² | - |
| 1778012279 | 25.56° C | 38% | 1014.5 hPa | 0 mm | 1.79 m/s, 206° | 432 W/m² | - |
| 1778011976 | 25.56° C | 39% | 1014.5 hPa | 0 mm | 0.89 m/s, 245° | 499 W/m² | - |
| 1778011675 | 26.11° C | 38% | 1014.6 hPa | 0 mm | 2.24 m/s, 229° | 355 W/m² | - |
| 1778011372 | 26.11° C | 36% | 1014.8 hPa | 0 mm | 0.89 m/s, 220° | 522 W/m² | - |
| 1778011067 | 26.67° C | 36% | 1014.9 hPa | 0 mm | 0.45 m/s, 216° | 582 W/m² | - |
| 1778010765 | 26.67° C | 38% | 1014.7 hPa | 0 mm | 0.89 m/s, 154° | 162 W/m² | - |
| 1778010462 | 26.67° C | 38% | 1014.6 hPa | 0 mm | 0.89 m/s, 194° | 521 W/m² | - |
| 1778010158 | 26.67° C | 37% | 1014.6 hPa | 0 mm | 1.34 m/s, 249° | 613 W/m² | - |
| 1778009854 | 26.67° C | 37% | 1014.8 hPa | 0 mm | 1.79 m/s, 240° | 635 W/m² | - |
| 1778009552 | 26.67° C | 37% | 1015 hPa | 0 mm | 0.89 m/s, 234° | 671 W/m² | - |
| 1778009250 | 26.67° C | 37% | 1014.8 hPa | 0 mm | 1.34 m/s, 204° | 551 W/m² | - |
| 1778008947 | 26.67° C | 38% | 1015.3 hPa | 0 mm | 1.34 m/s, 228° | 532 W/m² | - |
| 1778008645 | 26.67° C | 36% | 1015.3 hPa | 0 mm | 0.45 m/s, 270° | 460 W/m² | - |
| 1778008344 | 25.56° C | 38% | 1015.6 hPa | 0 mm | 1.79 m/s, 189° | 676 W/m² | - |
| 1778008039 | 26.11° C | 37% | 1015.7 hPa | 0 mm | 1.34 m/s, 246° | 681 W/m² | - |
| 1778007739 | 26.67° C | 35% | 1015.7 hPa | 0 mm | 1.34 m/s, 241° | 699 W/m² | - |
| 1778007436 | 26.67° C | 34% | 1015.7 hPa | 0 mm | 1.34 m/s, 286° | 696 W/m² | - |
| 1778007132 | 26.11° C | 35% | 1015.9 hPa | 0 mm | 1.34 m/s, 254° | 652 W/m² | - |
| 1778006828 | 26.11° C | 35% | 1015.8 hPa | 0 mm | 1.34 m/s, 233° | 427 W/m² | - |
| 1778006526 | 26.11° C | 34% | 1015.7 hPa | 0 mm | 1.79 m/s, 269° | 758 W/m² | - |
| 1778006222 | 25.56° C | 37% | 1016 hPa | 0 mm | 0.89 m/s, 237° | 635 W/m² | - |
| 1778005921 | 25.56° C | 36% | 1016.1 hPa | 0 mm | 1.34 m/s, 261° | 611 W/m² | - |
| 1778005616 | 26.11° C | 36% | 1016.2 hPa | 0 mm | 1.79 m/s, 248° | 588 W/m² | - |
| 1778005314 | 26.67° C | 37% | 1016.1 hPa | 0 mm | 1.79 m/s, 277° | 671 W/m² | - |
* Rain latest hour (hover to see other rain measurements)
** Current wind speed in m/s (hover to see current wind gust speed)